Time;durP1;ratioP1;P1;durP2;ratioP2;P2;SDS_P1;SDS_P2;PMS_P1;PMS_P2;Temp;Humidity;BMP_temperature;BMP_pressure;BME280_temperature;BME280_humidity;BME280_pressure;Samples;Min_cycle;Max_cycle;Signal;HPM_P1;HPM_P2
2022/05/01 00:00:59;;;;;;;12.13;7.68;;;9.80;99.90;;;;;;5053878;28;20425;-75
2022/05/01 00:03:30;;;;;;;10.65;7.13;;;9.70;99.90;;;;;;5054334;28;20041;-75
2022/05/01 00:06:00;;;;;;;10.40;7.88;;;9.70;99.90;;;;;;5054613;28;20385;-75
2022/05/01 00:08:26;;;;;;;12.63;7.45;;;9.70;99.90;;;;;;5054427;28;20182;-75
2022/05/01 00:10:52;;;;;;;12.27;7.93;;;9.80;99.90;;;;;;5054101;28;20009;-75
2022/05/01 00:13:17;;;;;;;14.77;8.25;;;9.80;99.90;;;;;;5054473;28;20047;-75
2022/05/01 00:15:43;;;;;;;13.18;8.82;;;9.80;99.90;;;;;;5053225;28;20043;-75
2022/05/01 00:18:08;;;;;;;13.82;8.63;;;9.70;99.90;;;;;;5054426;28;20392;-75
2022/05/01 00:20:34;;;;;;;11.35;7.82;;;9.70;99.90;;;;;;5054298;28;20135;-75
2022/05/01 00:23:00;;;;;;;12.55;8.85;;;9.70;99.90;;;;;;5054038;28;20032;-75
2022/05/01 00:25:26;;;;;;;14.77;8.73;;;9.70;99.90;;;;;;5054593;28;20017;-75
2022/05/01 00:27:52;;;;;;;15.18;8.13;;;9.70;99.90;;;;;;5053569;28;20044;-75
2022/05/01 00:30:17;;;;;;;15.63;8.77;;;9.70;99.90;;;;;;5053327;28;20511;-75
2022/05/01 00:38:11;;;;;;;13.00;9.30;;;9.60;99.90;;;;;;5053957;28;20106;-75
2022/05/01 00:40:37;;;;;;;16.52;9.73;;;9.60;99.90;;;;;;5053829;28;20048;-75
2022/05/01 00:43:04;;;;;;;18.33;9.25;;;9.60;99.90;;;;;;5053757;28;20029;-75
2022/05/01 00:45:30;;;;;;;17.60;10.02;;;9.60;99.90;;;;;;5051219;28;20673;-75
2022/05/01 00:47:56;;;;;;;15.10;8.85;;;9.60;99.90;;;;;;5053635;28;20396;-75
2022/05/01 00:50:22;;;;;;;15.40;10.25;;;9.60;99.90;;;;;;5053681;28;20021;-75
2022/05/01 00:52:48;;;;;;;12.90;8.65;;;9.60;99.90;;;;;;5053278;28;20116;-75
2022/05/01 00:55:13;;;;;;;15.25;9.60;;;9.60;99.90;;;;;;5053645;28;20111;-75
2022/05/01 00:57:39;;;;;;;16.52;9.75;;;9.60;99.90;;;;;;5053359;28;20104;-75
2022/05/01 01:00:06;;;;;;;12.98;8.98;;;9.60;99.90;;;;;;5053379;28;20099;-75
2022/05/01 01:02:32;;;;;;;14.07;8.77;;;9.50;99.90;;;;;;5053353;28;20489;-75
2022/05/01 01:04:57;;;;;;;14.75;9.35;;;9.50;99.90;;;;;;5053359;28;20213;-74
2022/05/01 01:07:25;;;;;;;15.95;9.55;;;9.50;99.90;;;;;;5053697;28;20447;-75
2022/05/01 01:09:51;;;;;;;12.88;8.98;;;9.50;99.90;;;;;;5053449;28;20025;-75
2022/05/01 01:15:08;;;;;;;12.73;9.68;;;9.50;99.90;;;;;;5033852;28;20055;-75
2022/05/01 01:17:37;;;;;;;13.52;8.95;;;9.40;99.90;;;;;;5050942;28;20080;-75
2022/05/01 01:20:11;;;;;;;14.65;9.10;;;9.40;99.90;;;;;;5052726;28;20049;-75
2022/05/01 01:22:38;;;;;;;13.00;9.25;;;9.40;99.90;;;;;;5053507;28;20029;-75
2022/05/01 01:25:05;;;;;;;13.07;9.25;;;9.40;99.90;;;;;;5053243;28;20522;-75
2022/05/01 01:27:31;;;;;;;12.60;9.13;;;9.30;99.90;;;;;;5049592;28;20042;-75
2022/05/01 01:32:41;;;;;;;17.13;9.38;;;9.30;99.90;;;;;;5032736;28;20037;-75
2022/05/01 01:35:09;;;;;;;17.75;9.43;;;9.30;99.90;;;;;;5046031;28;20029;-75
2022/05/01 01:37:35;;;;;;;16.83;10.05;;;9.20;99.90;;;;;;5051976;28;20025;-75
2022/05/01 01:40:01;;;;;;;16.90;9.73;;;9.20;99.90;;;;;;5052522;28;20519;-75
2022/05/01 01:42:29;;;;;;;14.13;9.23;;;9.20;99.90;;;;;;5048199;28;20065;-75
2022/05/01 01:44:56;;;;;;;14.50;10.18;;;9.20;99.90;;;;;;5032605;28;20071;-75
2022/05/01 01:47:22;;;;;;;17.33;9.77;;;9.20;99.90;;;;;;5046789;28;20071;-75
2022/05/01 01:49:47;;;;;;;13.57;9.18;;;9.20;99.90;;;;;;5052123;28;20029;-75
2022/05/01 01:52:13;;;;;;;13.27;9.32;;;9.20;99.90;;;;;;5052741;28;20137;-75
2022/05/01 01:54:38;;;;;;;15.82;9.50;;;9.20;99.90;;;;;;5052519;28;20081;-76
2022/05/01 01:57:05;;;;;;;15.25;9.98;;;9.20;99.90;;;;;;5051478;28;20025;-75
2022/05/01 01:59:31;;;;;;;14.68;9.68;;;9.10;99.90;;;;;;5052530;28;20025;-75
2022/05/01 02:01:56;;;;;;;18.63;10.15;;;9.20;99.90;;;;;;5052007;28;20362;-76
2022/05/01 02:04:22;;;;;;;15.05;9.27;;;9.10;99.90;;;;;;5052237;28;20057;-75
2022/05/01 02:06:47;;;;;;;16.33;10.32;;;9.10;99.90;;;;;;5051664;28;20037;-75
2022/05/01 02:09:15;;;;;;;16.08;10.77;;;9.10;99.90;;;;;;5052642;28;20041;-75
2022/05/01 02:11:40;;;;;;;15.38;10.85;;;9.10;99.90;;;;;;5049818;28;20113;-75
2022/05/01 02:14:06;;;;;;;17.63;11.23;;;9.00;99.90;;;;;;5052424;28;20067;-75
2022/05/01 02:16:32;;;;;;;15.93;10.70;;;9.00;99.90;;;;;;5052016;28;20025;-75
2022/05/01 02:18:57;;;;;;;15.85;10.07;;;9.00;99.90;;;;;;5051486;28;20028;-75
2022/05/01 02:21:37;;;;;;;15.15;10.10;;;9.00;99.90;;;;;;5051820;28;20052;-75
2022/05/01 02:24:05;;;;;;;18.70;10.70;;;9.00;99.90;;;;;;5051884;28;20075;-75
2022/05/01 02:26:30;;;;;;;15.45;10.60;;;9.00;99.90;;;;;;5042660;28;20033;-75
2022/05/01 02:28:59;;;;;;;15.60;9.88;;;8.90;99.90;;;;;;5051665;28;20493;-75
2022/05/01 02:31:25;;;;;;;16.45;10.15;;;8.90;99.90;;;;;;5051755;28;20366;-75
2022/05/01 02:33:50;;;;;;;18.52;10.90;;;8.90;99.90;;;;;;5051192;28;20032;-75
2022/05/01 02:36:16;;;;;;;18.15;10.40;;;8.90;99.90;;;;;;5051889;28;20025;-75
2022/05/01 02:38:42;;;;;;;16.30;10.10;;;8.80;99.90;;;;;;5051536;28;20049;-75
2022/05/01 02:41:08;;;;;;;16.95;10.73;;;8.80;99.90;;;;;;5042070;28;20037;-76
2022/05/01 02:43:33;;;;;;;17.17;10.77;;;8.70;99.90;;;;;;5052013;28;20429;-75
2022/05/01 02:45:59;;;;;;;16.52;10.68;;;8.70;99.90;;;;;;5051059;28;20021;-75
2022/05/01 02:48:24;;;;;;;24.33;10.80;;;8.70;99.90;;;;;;5051284;28;20389;-75
2022/05/01 02:50:50;;;;;;;18.23;11.52;;;8.70;99.90;;;;;;5051671;28;20072;-75
2022/05/01 02:53:15;;;;;;;19.00;11.02;;;8.70;99.90;;;;;;5051748;28;20496;-75
2022/05/01 02:55:47;;;;;;;18.48;11.50;;;8.70;99.90;;;;;;5050619;28;20029;-75
2022/05/01 02:58:12;;;;;;;15.88;10.30;;;8.60;99.90;;;;;;5051363;28;20029;-75
2022/05/01 03:00:38;;;;;;;18.23;11.60;;;8.70;99.90;;;;;;5051494;28;20074;-75
2022/05/01 03:03:04;;;;;;;20.17;12.10;;;8.60;99.90;;;;;;5051362;28;20370;-75
2022/05/01 03:05:30;;;;;;;16.75;11.35;;;8.70;99.90;;;;;;5051336;28;20032;-75
2022/05/01 03:07:56;;;;;;;15.70;11.02;;;8.60;99.90;;;;;;5050952;28;20396;-75
2022/05/01 03:10:22;;;;;;;15.35;10.90;;;8.60;99.90;;;;;;5043798;28;20021;-75
2022/05/01 03:12:48;;;;;;;20.38;11.80;;;8.60;99.90;;;;;;5050935;28;20025;-75
2022/05/01 03:15:13;;;;;;;20.95;11.57;;;8.60;99.90;;;;;;5051349;28;20031;-75
2022/05/01 03:23:07;;;;;;;20.17;12.25;;;8.50;99.90;;;;;;5051306;28;20040;-75
2022/05/01 03:25:33;;;;;;;20.77;12.93;;;8.50;99.90;;;;;;5050402;28;20397;-75
2022/05/01 03:27:59;;;;;;;22.08;13.00;;;8.50;99.90;;;;;;5050224;28;20041;-75
2022/05/01 03:30:24;;;;;;;20.35;13.80;;;8.40;99.90;;;;;;5051538;28;20378;-75
2022/05/01 03:32:50;;;;;;;25.60;12.98;;;8.40;99.90;;;;;;5050421;28;20024;-75
2022/05/01 03:35:17;;;;;;;22.13;11.57;;;8.40;99.90;;;;;;5051271;28;20436;-75
2022/05/01 03:37:43;;;;;;;17.40;12.43;;;8.40;99.90;;;;;;5050526;28;20057;-75
2022/05/01 03:40:15;;;;;;;22.00;12.93;;;8.40;99.90;;;;;;5050922;28;20507;-75
2022/05/01 03:42:41;;;;;;;19.60;13.05;;;8.30;99.90;;;;;;5050550;28;20041;-75
2022/05/01 03:45:09;;;;;;;17.52;11.73;;;8.30;99.90;;;;;;5050926;28;20508;-75
2022/05/01 03:47:34;;;;;;;21.02;13.77;;;8.30;99.90;;;;;;5051153;28;20037;-75
2022/05/01 03:50:00;;;;;;;20.30;13.23;;;8.30;99.90;;;;;;5050813;28;20101;-75
2022/05/01 03:52:26;;;;;;;19.80;13.02;;;8.20;99.90;;;;;;5040092;28;20633;-75
2022/05/01 03:54:51;;;;;;;21.77;14.10;;;8.20;99.90;;;;;;5050491;28;20025;-75
2022/05/01 03:57:17;;;;;;;20.00;12.75;;;8.20;99.90;;;;;;5050581;28;20021;-75
2022/05/01 03:59:42;;;;;;;19.13;13.18;;;8.20;99.90;;;;;;5050564;28;20032;-75
2022/05/01 04:02:08;;;;;;;20.17;13.30;;;8.10;99.90;;;;;;5050981;28;20507;-75
2022/05/01 04:04:35;;;;;;;19.80;12.80;;;8.10;99.90;;;;;;5050749;28;20029;-75
2022/05/01 04:07:01;;;;;;;20.95;14.00;;;8.00;99.90;;;;;;5049834;28;20109;-75
2022/05/01 04:09:28;;;;;;;21.40;13.52;;;8.00;99.90;;;;;;5050821;28;20195;-75
2022/05/01 04:11:54;;;;;;;18.77;12.32;;;8.00;99.90;;;;;;5050300;28;20017;-75
2022/05/01 04:14:22;;;;;;;22.88;12.45;;;8.00;99.90;;;;;;5050572;28;20056;-75
2022/05/01 04:16:50;;;;;;;20.02;13.18;;;8.00;99.90;;;;;;5050472;28;20104;-75
2022/05/01 04:19:15;;;;;;;18.90;13.00;;;8.00;99.90;;;;;;5050608;28;20029;-75
2022/05/01 04:21:41;;;;;;;22.20;13.85;;;8.00;99.90;;;;;;5044050;28;20100;-75
2022/05/01 04:24:07;;;;;;;22.73;13.80;;;7.90;99.90;;;;;;5042018;28;20024;-75
2022/05/01 04:26:32;;;;;;;21.92;13.93;;;7.90;99.90;;;;;;5054126;28;20483;-75
2022/05/01 04:31:42;;;;;;;20.90;13.02;;;7.90;99.90;;;;;;5047388;28;20029;-75
2022/05/01 04:34:08;;;;;;;21.85;14.45;;;7.90;99.90;;;;;;5034291;28;20033;-75
2022/05/01 04:36:33;;;;;;;21.00;14.05;;;7.90;99.90;;;;;;5035902;28;20037;-75
2022/05/01 04:38:59;;;;;;;18.30;13.23;;;7.90;99.90;;;;;;5053607;28;20436;-75
2022/05/01 04:41:25;;;;;;;20.17;12.73;;;7.90;99.90;;;;;;5054099;28;20078;-75
2022/05/01 04:43:51;;;;;;;19.55;12.57;;;7.90;99.90;;;;;;5053905;28;20025;-75
2022/05/01 04:46:16;;;;;;;22.67;13.38;;;7.90;99.90;;;;;;5054012;28;20032;-75
2022/05/01 04:48:42;;;;;;;20.52;13.30;;;7.90;99.90;;;;;;5050981;28;20118;-75
2022/05/01 04:51:08;;;;;;;21.23;13.45;;;7.90;99.90;;;;;;5039510;28;20039;-75
2022/05/01 04:53:34;;;;;;;22.40;13.95;;;7.90;99.90;;;;;;5054002;28;20469;-75
2022/05/01 04:57:04;;;;;;;19.52;13.00;;;7.90;99.90;;;;;;5053197;28;20048;-75
2022/05/01 04:58:47;;;;;;;20.67;12.77;;;7.90;99.90;;;;;;5053071;28;20033;-75
2022/05/01 05:01:13;;;;;;;24.60;14.25;;;8.00;99.90;;;;;;5053574;28;20021;-75
2022/05/01 05:03:39;;;;;;;19.38;12.90;;;8.00;99.90;;;;;;5052991;28;20115;-75
2022/05/01 05:06:04;;;;;;;19.08;13.00;;;8.00;99.90;;;;;;5053073;28;20195;-75
2022/05/01 05:11:14;;;;;;;19.75;13.30;;;8.20;99.90;;;;;;5037804;28;20554;-75
2022/05/01 05:13:39;;;;;;;21.20;14.15;;;8.20;99.90;;;;;;5053122;28;20029;-75
2022/05/01 05:16:12;;;;;;;19.70;12.95;;;8.20;99.90;;;;;;5053489;28;20143;-75
2022/05/01 05:18:39;;;;;;;16.20;11.82;;;8.30;99.90;;;;;;5053206;28;20037;-75
2022/05/01 05:21:05;;;;;;;19.08;12.85;;;8.30;99.90;;;;;;5052999;28;20045;-75
2022/05/01 05:23:31;;;;;;;23.60;12.27;;;8.30;99.90;;;;;;5053461;28;20104;-75
2022/05/01 05:25:56;;;;;;;21.02;13.07;;;8.40;99.90;;;;;;5051736;28;20063;-75
2022/05/01 05:28:22;;;;;;;20.65;12.95;;;8.40;99.90;;;;;;5035407;28;20036;-75
2022/05/01 05:30:51;;;;;;;22.08;13.05;;;8.40;99.90;;;;;;5052840;28;20035;-76
2022/05/01 05:33:17;;;;;;;20.58;12.93;;;8.40;99.90;;;;;;5052948;28;20449;-75
2022/05/01 05:35:43;;;;;;;16.63;11.57;;;8.50;99.90;;;;;;5052710;28;20466;-75
2022/05/01 05:38:08;;;;;;;18.48;11.80;;;8.50;99.90;;;;;;5052950;28;20033;-75
2022/05/01 05:40:34;;;;;;;21.17;12.52;;;8.50;99.90;;;;;;5052516;28;20029;-75
2022/05/01 05:42:59;;;;;;;17.63;11.88;;;8.60;99.90;;;;;;5052283;28;20028;-75
2022/05/01 05:45:25;;;;;;;19.52;13.10;;;8.60;99.90;;;;;;5053004;28;20409;-75
2022/05/01 05:47:51;;;;;;;21.48;12.98;;;8.70;99.90;;;;;;5052679;28;20068;-75
2022/05/01 05:50:17;;;;;;;22.13;13.57;;;8.80;99.90;;;;;;5052263;28;20032;-75
2022/05/01 05:52:42;;;;;;;18.83;12.23;;;8.80;99.90;;;;;;5052247;28;20037;-75
2022/05/01 05:55:08;;;;;;;19.88;12.70;;;8.90;99.90;;;;;;5049731;28;20472;-75
2022/05/01 05:57:34;;;;;;;20.25;13.25;;;9.00;99.90;;;;;;5052666;28;20155;-75
2022/05/01 06:00:00;;;;;;;18.02;11.52;;;9.10;99.90;;;;;;5052250;28;20112;-75
2022/05/01 06:02:26;;;;;;;17.55;11.60;;;9.20;99.90;;;;;;5052235;28;20024;-75
2022/05/01 06:04:51;;;;;;;18.95;13.43;;;9.30;99.90;;;;;;5051923;28;20017;-75
2022/05/01 06:07:17;;;;;;;17.10;12.02;;;9.30;99.90;;;;;;5052206;28;20029;-74
2022/05/01 06:09:42;;;;;;;21.92;11.85;;;9.40;99.90;;;;;;5052068;28;20072;-75
2022/05/01 06:12:09;;;;;;;19.52;11.85;;;9.40;99.90;;;;;;5051187;28;20033;-75
2022/05/01 06:14:35;;;;;;;17.17;12.18;;;9.50;99.90;;;;;;5052321;28;20500;-75
2022/05/01 06:17:01;;;;;;;17.58;12.40;;;9.60;99.90;;;;;;5051670;28;20013;-75
2022/05/01 06:19:26;;;;;;;17.92;12.23;;;9.60;99.90;;;;;;5042401;28;20087;-75
2022/05/01 06:21:52;;;;;;;19.05;11.65;;;9.70;99.90;;;;;;5036839;28;20037;-75
2022/05/01 06:24:17;;;;;;;20.27;11.90;;;9.80;99.90;;;;;;5052323;28;20083;-75
2022/05/01 06:26:43;;;;;;;18.88;11.93;;;9.90;99.90;;;;;;5051654;28;20104;-76
2022/05/01 06:29:09;;;;;;;16.08;11.15;;;10.00;99.90;;;;;;5052135;28;20029;-75
2022/05/01 06:31:39;;;;;;;21.40;12.20;;;10.10;99.90;;;;;;5052033;28;20041;-75
2022/05/01 06:34:05;;;;;;;17.58;11.27;;;10.20;99.90;;;;;;5051427;28;20032;-75
2022/05/01 06:36:31;;;;;;;21.02;12.27;;;10.30;99.90;;;;;;5051858;28;20036;-75
2022/05/01 06:38:57;;;;;;;15.57;11.30;;;10.40;99.90;;;;;;5051514;28;20035;-75
2022/05/01 06:41:22;;;;;;;14.63;10.57;;;10.50;99.90;;;;;;5051667;28;20100;-75
2022/05/01 06:43:48;;;;;;;19.40;11.57;;;10.50;99.90;;;;;;5050800;28;20139;-75
2022/05/01 06:46:13;;;;;;;16.00;11.82;;;10.50;99.90;;;;;;5048458;28;20021;-75
2022/05/01 06:48:39;;;;;;;17.58;12.20;;;10.60;99.90;;;;;;5051179;28;20420;-75
2022/05/01 06:51:04;;;;;;;14.93;11.10;;;10.70;99.90;;;;;;5051368;28;20048;-75
2022/05/01 06:53:30;;;;;;;17.50;11.48;;;10.80;99.90;;;;;;5051069;28;20063;-75
2022/05/01 06:55:56;;;;;;;15.82;10.23;;;10.90;99.90;;;;;;5051050;28;20022;-75
2022/05/01 06:58:22;;;;;;;21.52;11.75;;;10.90;99.90;;;;;;5051650;28;20028;-75
2022/05/01 07:00:49;;;;;;;17.40;11.70;;;10.90;99.90;;;;;;5049321;28;20159;-75
2022/05/01 07:03:15;;;;;;;17.08;11.82;;;10.90;99.90;;;;;;5051245;28;20028;-75
2022/05/01 07:05:40;;;;;;;16.55;11.85;;;11.00;99.90;;;;;;5051017;28;20389;-75
2022/05/01 07:08:06;;;;;;;18.63;10.95;;;11.00;99.90;;;;;;5033384;28;20112;-75
2022/05/01 07:10:32;;;;;;;19.23;10.98;;;11.10;99.90;;;;;;5051623;28;20094;-75
2022/05/01 07:12:57;;;;;;;15.05;11.30;;;11.10;99.90;;;;;;5050852;28;20040;-75
2022/05/01 07:15:23;;;;;;;16.33;11.48;;;11.20;99.90;;;;;;5045776;28;20091;-75
2022/05/01 07:17:48;;;;;;;19.58;11.55;;;11.30;99.90;;;;;;5050241;28;20033;-75
2022/05/01 07:20:14;;;;;;;18.13;11.10;;;11.40;99.90;;;;;;5051204;28;20436;-75
2022/05/01 07:22:39;;;;;;;14.93;12.18;;;11.50;99.90;;;;;;5050746;28;20055;-75
2022/05/01 07:25:06;;;;;;;18.38;12.25;;;11.50;99.90;;;;;;5051330;28;20031;-76
2022/05/01 07:27:31;;;;;;;16.70;10.93;;;11.60;99.90;;;;;;5050934;28;20029;-75
2022/05/01 07:29:57;;;;;;;17.25;11.80;;;11.70;99.90;;;;;;5050377;28;20029;-75
2022/05/01 07:32:22;;;;;;;17.48;12.50;;;11.70;99.90;;;;;;5051135;28;20025;-76
2022/05/01 07:34:48;;;;;;;18.98;11.68;;;11.80;99.90;;;;;;5050349;28;20044;-75
2022/05/01 07:37:14;;;;;;;16.25;11.40;;;11.90;99.90;;;;;;5051253;28;20017;-75
2022/05/01 07:39:39;;;;;;;14.50;10.73;;;11.90;99.90;;;;;;5050641;28;20033;-75
2022/05/01 07:42:05;;;;;;;43.75;12.80;;;12.00;99.90;;;;;;5050471;28;20025;-75
2022/05/01 07:44:31;;;;;;;16.15;11.38;;;12.00;99.90;;;;;;5051072;28;20025;-75
2022/05/01 07:46:59;;;;;;;16.80;11.15;;;12.10;99.90;;;;;;5050449;28;20040;-75
2022/05/01 07:49:24;;;;;;;13.77;10.18;;;12.20;99.90;;;;;;5030959;28;20026;-75
2022/05/01 07:51:50;;;;;;;18.00;10.15;;;12.30;99.90;;;;;;5050648;28;20037;-75
2022/05/01 07:54:15;;;;;;;13.10;10.75;;;12.40;99.90;;;;;;5050732;28;20029;-76
2022/05/01 07:56:41;;;;;;;16.20;10.02;;;12.40;99.90;;;;;;5052557;28;20032;-75
2022/05/01 07:59:08;;;;;;;13.77;9.65;;;12.50;99.90;;;;;;5054779;28;20037;-75
2022/05/01 08:01:34;;;;;;;13.95;9.95;;;12.50;99.90;;;;;;5036828;28;20118;-76
2022/05/01 08:06:44;;;;;;;14.85;8.38;;;12.60;99.90;;;;;;5054478;28;20516;-76
2022/05/01 08:09:09;;;;;;;12.63;8.05;;;12.70;99.90;;;;;;5054947;28;20033;-75
2022/05/01 08:11:35;;;;;;;12.68;7.47;;;12.80;99.90;;;;;;5053313;28;20431;-76
2022/05/01 08:14:01;;;;;;;10.98;7.80;;;12.90;99.90;;;;;;5034440;28;20327;-76
2022/05/01 08:16:27;;;;;;;11.68;6.65;;;13.00;99.90;;;;;;5052861;28;20385;-75
2022/05/01 08:21:36;;;;;;;8.40;5.13;;;13.10;99.90;;;;;;5054502;28;20048;-75
2022/05/01 08:24:03;;;;;;;8.07;5.78;;;13.10;99.90;;;;;;5053927;28;20423;-75
2022/05/01 08:26:33;;;;;;;10.25;5.90;;;13.10;99.90;;;;;;5040640;28;20127;-76
2022/05/01 08:29:00;;;;;;;11.43;7.40;;;13.10;99.90;;;;;;5043928;28;20517;-75
2022/05/01 08:31:26;;;;;;;11.82;7.88;;;13.20;99.90;;;;;;5054146;28;20592;-76
2022/05/01 08:33:51;;;;;;;11.00;7.13;;;13.20;99.90;;;;;;5054140;28;20043;-75
2022/05/01 08:36:17;;;;;;;13.00;8.05;;;13.20;99.90;;;;;;5054215;28;20079;-76
2022/05/01 08:38:45;;;;;;;10.05;6.68;;;13.10;99.90;;;;;;5053534;28;20021;-75
2022/05/01 08:41:27;;;;;;;10.63;7.40;;;13.20;99.90;;;;;;5053307;28;20037;-75
2022/05/01 08:44:16;;;;;;;13.38;8.55;;;13.20;99.90;;;;;;5053461;28;20548;-75
2022/05/01 08:47:16;;;;;;;11.73;8.18;;;13.20;99.90;;;;;;5053420;28;20091;-76
2022/05/01 08:49:43;;;;;;;11.80;7.07;;;13.30;99.90;;;;;;5027710;28;20048;-76
2022/05/01 08:52:09;;;;;;;12.45;8.70;;;13.30;99.90;;;;;;5053640;28;20036;-75
2022/05/01 08:54:36;;;;;;;11.43;8.07;;;13.40;99.90;;;;;;5053168;28;20474;-75
2022/05/01 08:57:02;;;;;;;11.80;8.63;;;13.60;99.90;;;;;;5053370;28;20029;-76
2022/05/01 08:59:29;;;;;;;11.05;7.45;;;13.80;99.50;;;;;;5053793;28;20032;-76
2022/05/01 09:01:55;;;;;;;11.07;7.88;;;13.90;99.30;;;;;;5053157;28;20035;-75
2022/05/01 09:04:24;;;;;;;10.57;7.18;;;14.00;98.40;;;;;;5053592;28;20021;-76
2022/05/01 09:06:50;;;;;;;11.40;7.43;;;14.10;98.30;;;;;;5052471;28;20037;-75
2022/05/01 09:09:18;;;;;;;11.68;7.35;;;14.20;97.80;;;;;;5047866;28;20084;-75
2022/05/01 09:14:29;;;;;;;12.20;6.78;;;14.10;97.10;;;;;;5033722;28;20037;-76
2022/05/01 09:17:13;;;;;;;9.63;6.78;;;14.00;97.00;;;;;;5033631;28;20025;-75
2022/05/01 09:19:39;;;;;;;11.80;5.97;;;14.00;96.70;;;;;;5032858;28;20060;-75
2022/05/01 09:22:05;;;;;;;7.15;5.57;;;14.00;96.30;;;;;;5052897;28;20033;-75
2022/05/01 09:24:30;;;;;;;8.32;6.00;;;13.80;95.80;;;;;;5043597;28;20057;-76
2022/05/01 09:26:57;;;;;;;8.73;6.72;;;13.70;96.20;;;;;;5043456;28;20028;-75
2022/05/01 09:29:25;;;;;;;8.55;5.28;;;13.80;96.10;;;;;;5053231;28;20040;-76
2022/05/01 09:31:52;;;;;;;8.52;4.78;;;13.90;95.70;;;;;;5052384;28;20025;-75
2022/05/01 09:34:23;;;;;;;9.98;5.53;;;14.00;95.40;;;;;;5053217;28;20028;-75
2022/05/01 09:36:49;;;;;;;6.93;5.18;;;14.20;95.00;;;;;;5048930;28;20025;-76
2022/05/01 09:39:33;;;;;;;7.53;3.95;;;14.30;94.80;;;;;;5043283;28;20025;-76
2022/05/01 09:42:19;;;;;;;7.40;4.82;;;14.40;93.50;;;;;;5053099;28;20037;-76
2022/05/01 09:45:06;;;;;;;14.20;3.00;;;14.40;93.00;;;;;;5052851;28;20033;-76
2022/05/01 09:47:43;;;;;;;3.97;1.25;;;14.50;92.10;;;;;;5053127;28;20123;-76
2022/05/01 09:50:10;;;;;;;2.53;1.35;;;14.50;90.90;;;;;;5036587;28;20046;-76
2022/05/01 09:53:09;;;;;;;2.67;1.70;;;14.50;90.40;;;;;;5051813;28;20104;-76
2022/05/01 09:55:35;;;;;;;7.90;2.65;;;14.50;88.20;;;;;;4998582;28;20055;-76
2022/05/01 09:58:03;;;;;;;4.50;1.40;;;14.30;87.60;;;;;;5052317;28;20032;-76
2022/05/01 10:00:40;;;;;;;7.10;3.53;;;14.30;86.20;;;;;;5034811;28;20029;-75
2022/05/01 10:03:21;;;;;;;3.90;2.90;;;14.40;85.40;;;;;;5052244;28;20021;-76
2022/05/01 10:05:48;;;;;;;5.45;2.75;;;14.50;85.20;;;;;;5052163;28;20025;-75
2022/05/01 10:08:15;;;;;;;6.22;3.35;;;14.60;84.00;;;;;;5051742;28;20037;-76
2022/05/01 10:10:44;;;;;;;5.10;3.60;;;14.60;83.30;;;;;;5051945;28;20048;-76
2022/05/01 10:15:38;;;;;;;5.32;3.40;;;14.60;82.80;;;;;;5050466;22;20063;-75
2022/05/01 10:18:04;;;;;;;6.28;3.55;;;14.60;82.60;;;;;;5040387;28;20029;-75
2022/05/01 10:20:30;;;;;;;7.40;4.07;;;14.60;82.90;;;;;;5047806;28;20565;-75
2022/05/01 10:22:57;;;;;;;7.28;3.80;;;14.60;83.20;;;;;;5049453;28;20399;-75
2022/05/01 10:25:22;;;;;;;5.90;3.63;;;14.60;83.30;;;;;;5044626;28;20029;-75
2022/05/01 10:27:59;;;;;;;7.18;4.72;;;14.60;83.90;;;;;;5041679;28;20439;-75
2022/05/01 10:33:35;;;;;;;6.45;4.10;;;14.80;83.40;;;;;;5049136;28;20171;-75
2022/05/01 10:36:34;;;;;;;6.57;3.95;;;14.80;83.40;;;;;;5045079;28;20472;-75
2022/05/01 10:39:09;;;;;;;7.05;3.65;;;14.80;83.80;;;;;;5049954;28;20120;-75
2022/05/01 10:41:41;;;;;;;6.05;2.95;;;14.90;83.00;;;;;;5048498;28;20112;-75
2022/05/01 10:44:06;;;;;;;6.38;3.72;;;14.90;82.70;;;;;;5044166;28;20112;-75
2022/05/01 10:46:32;;;;;;;6.40;3.35;;;14.90;82.40;;;;;;5049285;28;20104;-75
2022/05/01 10:49:05;;;;;;;7.05;3.05;;;14.90;82.80;;;;;;5049073;28;20044;-75
2022/05/01 10:51:36;;;;;;;6.13;3.50;;;14.90;81.70;;;;;;5050242;28;20029;-75
2022/05/01 10:54:33;;;;;;;7.18;3.67;;;14.80;80.30;;;;;;5049720;28;20460;-75
2022/05/01 10:57:10;;;;;;;9.27;4.03;;;14.90;79.60;;;;;;5049714;28;20029;-75
2022/05/01 10:59:43;;;;;;;6.45;3.25;;;14.90;78.90;;;;;;5043515;28;20021;-75
2022/05/01 11:02:24;;;;;;;7.47;3.47;;;14.90;79.40;;;;;;5036733;28;20040;-75
2022/05/01 11:04:51;;;;;;;4.75;3.40;;;15.00;78.00;;;;;;5048617;28;20119;-75
2022/05/01 11:07:18;;;;;;;6.05;3.40;;;15.00;77.20;;;;;;5044417;28;20025;-75
2022/05/01 11:09:45;;;;;;;5.78;3.55;;;15.00;76.70;;;;;;5043645;28;20107;-75
2022/05/01 11:12:13;;;;;;;5.25;3.22;;;15.10;76.80;;;;;;5045899;28;20055;-75
2022/05/01 11:15:04;;;;;;;4.72;2.83;;;15.30;76.50;;;;;;5044629;28;20045;-75
2022/05/01 11:17:51;;;;;;;5.50;3.70;;;15.40;76.10;;;;;;5041900;28;20568;-76
2022/05/01 11:20:19;;;;;;;6.50;3.50;;;15.60;75.00;;;;;;5048083;28;20518;-76
2022/05/01 11:22:45;;;;;;;3.38;2.60;;;15.70;74.90;;;;;;5049180;28;20033;-76
2022/05/01 11:25:16;;;;;;;5.95;3.28;;;15.90;73.90;;;;;;5044594;28;20029;-75
2022/05/01 11:27:52;;;;;;;5.20;3.55;;;15.80;71.70;;;;;;5047204;28;20025;-75
2022/05/01 11:30:26;;;;;;;4.72;3.55;;;15.80;70.70;;;;;;5048233;28;20116;-76
2022/05/01 11:33:11;;;;;;;6.22;3.33;;;15.90;71.50;;;;;;5057726;28;20108;-76
2022/05/01 11:36:00;;;;;;;6.28;3.95;;;16.10;70.80;;;;;;5052483;28;20029;-76
2022/05/01 11:38:53;;;;;;;5.57;3.03;;;16.30;69.40;;;;;;5054178;28;20033;-76
2022/05/01 11:41:42;;;;;;;5.50;3.25;;;16.30;69.90;;;;;;5047310;28;20484;-76
2022/05/01 11:44:21;;;;;;;4.70;3.45;;;16.40;68.30;;;;;;5047624;28;20036;-76
2022/05/01 11:46:47;;;;;;;5.40;2.83;;;16.50;66.50;;;;;;5044723;28;20025;-76
2022/05/01 11:49:13;;;;;;;3.50;2.60;;;16.50;66.80;;;;;;5053766;28;20542;-76
2022/05/01 11:51:39;;;;;;;6.38;3.42;;;16.60;66.90;;;;;;5057468;28;20041;-76
2022/05/01 11:54:05;;;;;;;8.73;3.83;;;16.80;66.60;;;;;;5053068;28;20108;-76
2022/05/01 12:04:46;;;;;;;6.88;3.55;;;17.50;65.00;;;;;;5047775;28;20082;-76
2022/05/01 12:07:17;;;;;;;6.75;3.47;;;17.70;64.50;;;;;;5029664;28;20389;-75
2022/05/01 12:09:47;;;;;;;3.97;2.95;;;17.70;63.20;;;;;;5048723;28;20036;-76
2022/05/01 12:12:16;;;;;;;5.57;3.80;;;17.80;63.40;;;;;;5044935;28;20021;-75
2022/05/01 12:14:42;;;;;;;5.55;3.78;;;17.90;63.60;;;;;;5046305;28;20056;-76
2022/05/01 12:17:10;;;;;;;4.47;3.88;;;18.10;63.20;;;;;;5046817;28;20124;-76
2022/05/01 12:19:41;;;;;;;7.72;4.50;;;18.10;62.30;;;;;;5046118;28;20395;-76
2022/05/01 12:22:08;;;;;;;6.00;4.10;;;18.10;61.30;;;;;;5051985;28;20594;-77
2022/05/01 12:24:35;;;;;;;7.47;4.10;;;17.90;61.40;;;;;;5044758;28;20372;-76
2022/05/01 12:27:02;;;;;;;5.90;4.28;;;17.90;61.90;;;;;;5045064;28;20096;-76
2022/05/01 12:29:29;;;;;;;8.25;4.57;;;17.90;62.00;;;;;;5052242;28;20047;-76
2022/05/01 12:32:14;;;;;;;7.43;4.20;;;17.90;60.60;;;;;;5046671;28;20112;-77
2022/05/01 12:34:49;;;;;;;7.57;3.95;;;17.90;60.90;;;;;;5050620;28;20186;-76
2022/05/01 12:37:16;;;;;;;5.25;3.83;;;17.80;59.30;;;;;;5051361;28;20043;-77
2022/05/01 12:39:43;;;;;;;6.18;3.90;;;17.60;60.00;;;;;;5035903;28;20583;-76
2022/05/01 12:45:02;;;;;;;6.90;3.90;;;18.20;60.30;;;;;;5039350;28;20047;-76
2022/05/01 12:47:36;;;;;;;7.25;4.40;;;18.50;60.10;;;;;;5043833;28;20051;-77
2022/05/01 12:50:07;;;;;;;6.50;3.40;;;18.90;58.70;;;;;;5042552;28;20123;-77
2022/05/01 12:52:33;;;;;;;4.97;3.75;;;18.90;58.60;;;;;;5045015;28;20029;-77
2022/05/01 12:55:05;;;;;;;8.88;4.45;;;19.10;58.50;;;;;;5044699;28;20507;-77
2022/05/01 12:57:36;;;;;;;8.57;4.35;;;19.20;58.30;;;;;;5042679;28;20140;-78
2022/05/01 13:00:02;;;;;;;8.18;4.57;;;19.10;57.60;;;;;;5038660;28;20017;-78
2022/05/01 13:02:28;;;;;;;7.80;4.72;;;18.80;56.70;;;;;;5043582;28;20074;-78
2022/05/01 13:04:58;;;;;;;26.25;5.28;;;18.60;58.10;;;;;;5041530;28;20041;-78
2022/05/01 13:07:31;;;;;;;5.53;3.88;;;18.50;57.60;;;;;;5044700;28;20124;-77
2022/05/01 13:09:57;;;;;;;6.00;4.50;;;18.60;57.70;;;;;;5041902;28;20029;-77
2022/05/01 13:12:34;;;;;;;6.18;4.28;;;18.60;58.00;;;;;;5041876;28;20067;-78
2022/05/01 13:15:04;;;;;;;6.25;4.45;;;18.50;57.60;;;;;;5035243;28;20040;-78
2022/05/01 13:17:31;;;;;;;7.03;4.38;;;18.20;57.60;;;;;;5042725;28;20496;-78
2022/05/01 13:19:58;;;;;;;5.35;3.55;;;18.10;58.10;;;;;;5036863;28;20661;-78
2022/05/01 13:22:24;;;;;;;5.90;4.10;;;18.20;58.20;;;;;;5049998;28;20029;-77
2022/05/01 13:24:54;;;;;;;6.13;4.25;;;18.10;57.50;;;;;;5038172;28;20024;-78
2022/05/01 13:27:22;;;;;;;5.10;3.85;;;18.00;57.20;;;;;;5043540;28;20094;-78
2022/05/01 13:29:48;;;;;;;4.47;3.40;;;18.00;56.60;;;;;;5049705;28;20040;-78
2022/05/01 13:32:19;;;;;;;5.25;4.03;;;18.10;56.10;;;;;;5051186;28;20484;-77